Time;durP1;ratioP1;P1;durP2;ratioP2;P2;SDS_P1;SDS_P2;PMS_P1;PMS_P2;Temp;Humidity;BMP_temperature;BMP_pressure;BME280_temperature;BME280_humidity;BME280_pressure;Samples;Min_cycle;Max_cycle;Signal;HPM_P1;HPM_P2
2024/01/29 00:01:43;;;;;;;5.13;3.28;;;4.70;99.90;;;;;;5134962;28;20028;-63
2024/01/29 00:04:08;;;;;;;5.57;3.10;;;4.70;99.90;;;;;;5134756;28;20015;-63
2024/01/29 00:06:34;;;;;;;5.32;3.35;;;4.60;99.90;;;;;;5134830;28;20492;-63
2024/01/29 00:09:00;;;;;;;6.97;3.22;;;4.50;99.90;;;;;;5134693;28;20028;-61
2024/01/29 00:11:25;;;;;;;6.25;3.45;;;4.50;99.90;;;;;;5134625;28;20039;-62
2024/01/29 00:13:51;;;;;;;4.18;2.95;;;4.40;99.90;;;;;;5134652;28;20027;-62
2024/01/29 00:16:17;;;;;;;6.90;3.45;;;4.30;99.90;;;;;;5134586;28;20020;-62
2024/01/29 00:18:42;;;;;;;8.27;3.33;;;4.20;99.90;;;;;;5134395;28;20493;-61
2024/01/29 00:21:08;;;;;;;6.50;3.40;;;4.20;99.90;;;;;;5134427;28;20030;-63
2024/01/29 00:23:34;;;;;;;6.03;3.53;;;4.20;99.90;;;;;;5134321;28;20115;-63
2024/01/29 00:26:00;;;;;;;6.10;3.08;;;4.20;99.90;;;;;;5134387;28;20084;-62
2024/01/29 00:28:25;;;;;;;6.25;3.17;;;4.20;99.90;;;;;;5134312;28;20048;-62
2024/01/29 00:30:51;;;;;;;6.30;3.28;;;4.20;99.90;;;;;;5134084;28;20052;-62
2024/01/29 00:33:16;;;;;;;8.95;3.70;;;4.30;99.90;;;;;;5134305;28;20035;-63
2024/01/29 00:35:42;;;;;;;6.97;3.50;;;4.30;99.90;;;;;;5134179;28;20045;-63
2024/01/29 00:38:08;;;;;;;7.65;3.90;;;4.40;99.90;;;;;;5134258;28;20028;-63
2024/01/29 00:40:34;;;;;;;12.90;3.60;;;4.40;99.90;;;;;;5134027;28;20028;-62
2024/01/29 00:43:00;;;;;;;5.70;3.50;;;4.40;99.90;;;;;;5133959;28;20087;-64
2024/01/29 00:45:26;;;;;;;8.73;3.70;;;4.40;99.90;;;;;;5133993;28;20028;-63
2024/01/29 00:47:52;;;;;;;7.80;3.20;;;4.40;99.90;;;;;;5133989;28;20047;-62
2024/01/29 00:50:18;;;;;;;7.32;3.03;;;4.40;99.90;;;;;;5133703;28;20035;-62
2024/01/29 00:52:43;;;;;;;5.57;3.58;;;4.30;99.90;;;;;;5133775;28;20023;-63
2024/01/29 00:55:09;;;;;;;6.30;3.22;;;4.30;99.90;;;;;;5133881;28;20026;-63
2024/01/29 00:57:35;;;;;;;6.07;3.25;;;4.30;99.90;;;;;;5133707;28;20020;-63
2024/01/29 01:00:00;;;;;;;6.68;3.03;;;4.30;99.90;;;;;;5133842;28;20043;-63
2024/01/29 01:02:26;;;;;;;8.07;3.78;;;4.30;99.90;;;;;;5133695;28;20087;-62
2024/01/29 01:04:51;;;;;;;5.80;3.25;;;4.30;99.90;;;;;;5133681;28;20054;-63
2024/01/29 01:07:17;;;;;;;10.07;3.70;;;4.40;99.90;;;;;;5132704;28;20042;-62
2024/01/29 01:09:43;;;;;;;8.63;3.50;;;4.40;99.90;;;;;;5133470;28;20046;-63
2024/01/29 01:12:08;;;;;;;7.68;3.78;;;4.50;99.90;;;;;;5133530;28;20039;-62
2024/01/29 01:14:34;;;;;;;6.72;3.10;;;4.50;99.90;;;;;;5133429;28;20047;-62
2024/01/29 01:16:59;;;;;;;8.88;3.45;;;4.50;99.90;;;;;;5132494;28;20083;-62
2024/01/29 01:19:25;;;;;;;6.50;3.50;;;4.50;99.90;;;;;;5133198;28;20035;-61
2024/01/29 01:21:50;;;;;;;5.82;3.17;;;4.50;99.90;;;;;;5133228;28;20024;-62
2024/01/29 01:24:16;;;;;;;6.22;3.50;;;4.60;99.90;;;;;;5133409;28;20016;-63
2024/01/29 01:26:42;;;;;;;8.43;3.63;;;4.60;99.90;;;;;;5133335;28;20020;-61
2024/01/29 01:29:07;;;;;;;5.95;3.42;;;4.60;99.90;;;;;;5133256;28;20028;-62
2024/01/29 01:31:33;;;;;;;9.32;3.83;;;4.70;99.90;;;;;;5133070;28;20112;-62
2024/01/29 01:33:58;;;;;;;7.82;3.28;;;4.60;99.90;;;;;;5133271;28;20020;-62
2024/01/29 01:36:24;;;;;;;10.18;3.70;;;4.60;99.90;;;;;;5133138;28;20019;-61
2024/01/29 01:38:50;;;;;;;6.75;3.35;;;4.60;99.90;;;;;;5133251;28;20028;-63
2024/01/29 01:41:16;;;;;;;6.25;3.50;;;4.50;99.90;;;;;;5133096;28;20031;-63
2024/01/29 01:43:41;;;;;;;5.03;3.10;;;4.50;99.90;;;;;;5133091;28;20520;-62
2024/01/29 01:46:21;;;;;;;6.43;2.90;;;4.40;99.90;;;;;;5133110;28;20024;-62
2024/01/29 01:48:48;;;;;;;8.35;3.88;;;4.40;99.90;;;;;;5132796;28;20024;-62
2024/01/29 01:51:14;;;;;;;6.32;3.70;;;4.30;99.90;;;;;;5132872;28;20027;-61
2024/01/29 01:53:41;;;;;;;9.00;3.88;;;4.30;99.90;;;;;;5133160;28;20043;-62
2024/01/29 01:56:07;;;;;;;8.70;3.15;;;4.30;99.90;;;;;;5132979;28;20082;-62
2024/01/29 01:58:34;;;;;;;8.25;3.58;;;4.40;99.90;;;;;;5132985;28;20087;-62
2024/01/29 02:01:00;;;;;;;5.63;3.50;;;4.40;99.90;;;;;;5132904;28;20027;-62
2024/01/29 02:03:26;;;;;;;6.07;3.42;;;4.40;99.90;;;;;;5133030;28;20043;-62
2024/01/29 02:05:52;;;;;;;4.97;3.03;;;4.40;99.90;;;;;;5132837;28;20024;-63
2024/01/29 02:08:18;;;;;;;8.88;3.50;;;4.40;99.90;;;;;;5132778;28;20058;-62
2024/01/29 02:10:45;;;;;;;7.32;3.80;;;4.40;99.90;;;;;;5132744;28;20409;-62
2024/01/29 02:13:14;;;;;;;7.18;3.60;;;4.40;99.90;;;;;;5132854;28;20108;-62
2024/01/29 02:15:41;;;;;;;8.95;3.60;;;4.30;99.90;;;;;;5132746;28;20024;-63
2024/01/29 02:18:07;;;;;;;6.55;3.30;;;4.30;99.90;;;;;;5132557;28;20016;-61
2024/01/29 02:20:36;;;;;;;7.95;3.47;;;4.30;99.90;;;;;;5136468;28;20032;-62
2024/01/29 02:23:02;;;;;;;8.65;3.70;;;4.30;99.90;;;;;;5136837;28;20036;-63
2024/01/29 02:25:28;;;;;;;6.75;3.42;;;4.30;99.90;;;;;;5136768;28;20417;-62
2024/01/29 02:27:53;;;;;;;7.15;3.33;;;4.30;99.90;;;;;;5136641;28;20028;-63
2024/01/29 02:30:19;;;;;;;7.45;3.22;;;4.20;99.90;;;;;;5136412;28;20048;-62
2024/01/29 02:32:45;;;;;;;5.78;3.72;;;4.30;99.90;;;;;;5136529;28;20028;-63
2024/01/29 02:35:10;;;;;;;7.68;3.67;;;4.30;99.90;;;;;;5136537;28;20043;-63
2024/01/29 02:37:36;;;;;;;6.00;3.10;;;4.30;99.90;;;;;;5136624;28;20024;-63
2024/01/29 02:40:02;;;;;;;8.98;3.90;;;4.30;99.90;;;;;;5136495;28;20485;-62
2024/01/29 02:42:28;;;;;;;8.02;3.33;;;4.20;99.90;;;;;;5136476;28;20052;-63
2024/01/29 02:44:53;;;;;;;5.30;2.88;;;4.20;99.90;;;;;;5136388;28;20039;-63
2024/01/29 02:47:19;;;;;;;7.78;3.40;;;4.20;99.90;;;;;;5136208;28;20031;-63
2024/01/29 02:49:45;;;;;;;5.30;3.13;;;4.10;99.90;;;;;;5136071;28;20034;-63
2024/01/29 02:52:11;;;;;;;7.13;3.60;;;4.10;99.90;;;;;;5136322;28;20024;-62
2024/01/29 02:54:37;;;;;;;5.75;3.30;;;4.20;99.90;;;;;;5136259;28;20070;-64
2024/01/29 02:57:04;;;;;;;8.20;3.60;;;4.10;99.90;;;;;;5136261;28;20023;-62
2024/01/29 02:59:29;;;;;;;7.30;3.17;;;4.10;99.90;;;;;;5136078;28;20035;-61
2024/01/29 03:01:55;;;;;;;8.13;3.70;;;4.10;99.90;;;;;;5136025;28;20028;-63
2024/01/29 03:04:21;;;;;;;7.43;3.38;;;4.10;99.90;;;;;;5136101;28;20118;-62
2024/01/29 03:06:46;;;;;;;6.97;3.33;;;4.10;99.90;;;;;;5136062;28;20027;-62
2024/01/29 03:09:12;;;;;;;6.53;3.45;;;4.20;99.90;;;;;;5136039;28;20032;-63
2024/01/29 03:11:38;;;;;;;6.60;3.70;;;4.10;99.90;;;;;;5135845;28;20032;-62
2024/01/29 03:14:03;;;;;;;6.97;3.50;;;4.10;99.90;;;;;;5135819;28;20039;-62
2024/01/29 03:16:29;;;;;;;5.75;3.08;;;4.10;99.90;;;;;;5135713;28;20038;-63
2024/01/29 03:18:54;;;;;;;5.97;3.67;;;4.10;99.90;;;;;;5135528;28;20027;-63
2024/01/29 03:21:20;;;;;;;7.35;3.47;;;4.00;99.90;;;;;;5135752;28;20032;-62
2024/01/29 03:23:46;;;;;;;8.40;3.92;;;4.00;99.90;;;;;;5135742;28;20051;-63
2024/01/29 03:26:11;;;;;;;7.68;3.60;;;4.00;99.90;;;;;;5135651;28;20027;-62
2024/01/29 03:28:37;;;;;;;8.25;3.72;;;4.00;99.90;;;;;;5135509;28;20039;-63
2024/01/29 03:31:02;;;;;;;9.52;4.05;;;4.00;99.90;;;;;;5134235;28;20103;-63
2024/01/29 03:33:28;;;;;;;7.18;3.60;;;4.00;99.90;;;;;;5135503;28;20027;-63
2024/01/29 03:35:54;;;;;;;5.57;3.28;;;3.90;99.90;;;;;;5135399;28;20023;-63
2024/01/29 03:38:19;;;;;;;6.85;4.00;;;3.90;99.90;;;;;;5135370;28;20045;-64
2024/01/29 03:40:46;;;;;;;8.45;3.78;;;3.90;99.90;;;;;;5135258;28;20039;-62
2024/01/29 03:43:12;;;;;;;7.68;3.63;;;3.90;99.90;;;;;;5135319;28;20107;-61
2024/01/29 03:45:37;;;;;;;7.00;4.18;;;3.90;99.90;;;;;;5135136;28;20032;-61
2024/01/29 03:48:03;;;;;;;8.18;4.07;;;3.90;99.90;;;;;;5135043;28;20085;-62
2024/01/29 03:50:29;;;;;;;7.72;4.10;;;3.90;99.90;;;;;;5135059;28;20095;-62
2024/01/29 03:52:54;;;;;;;7.53;3.80;;;3.90;99.90;;;;;;5135181;28;20019;-63
2024/01/29 03:55:20;;;;;;;8.43;4.10;;;3.80;99.90;;;;;;5135051;28;20031;-62
2024/01/29 03:57:45;;;;;;;7.13;3.60;;;3.90;99.90;;;;;;5134940;28;20028;-62
2024/01/29 04:00:12;;;;;;;8.38;3.67;;;3.90;99.90;;;;;;5134800;28;20032;-62
2024/01/29 04:02:37;;;;;;;7.15;3.97;;;3.90;99.90;;;;;;5134970;28;20041;-63
2024/01/29 04:05:03;;;;;;;9.68;4.20;;;3.90;99.90;;;;;;5134876;28;20031;-63
2024/01/29 04:07:29;;;;;;;5.97;3.80;;;3.90;99.90;;;;;;5134935;28;20039;-62
2024/01/29 04:09:54;;;;;;;7.65;3.80;;;3.90;99.90;;;;;;5134685;28;20077;-62
2024/01/29 04:12:20;;;;;;;8.68;4.15;;;3.90;99.90;;;;;;5134679;28;20111;-63
2024/01/29 04:14:46;;;;;;;10.13;4.00;;;3.90;99.90;;;;;;5134432;28;20036;-62
2024/01/29 04:17:12;;;;;;;8.48;4.22;;;3.90;99.90;;;;;;5134465;28;20080;-63
2024/01/29 04:19:38;;;;;;;8.20;3.20;;;3.90;99.90;;;;;;5134214;28;20023;-62
2024/01/29 04:22:05;;;;;;;7.60;4.22;;;3.90;99.90;;;;;;5134404;28;20079;-61
2024/01/29 04:24:30;;;;;;;8.48;3.60;;;3.80;99.90;;;;;;5134356;28;20585;-63
2024/01/29 04:26:56;;;;;;;8.63;3.63;;;3.90;99.90;;;;;;5134432;28;20040;-62
2024/01/29 04:29:22;;;;;;;7.13;3.25;;;3.90;99.90;;;;;;5134105;28;20032;-62
2024/01/29 04:31:48;;;;;;;8.23;4.13;;;3.80;99.90;;;;;;5134231;28;20536;-62
2024/01/29 04:34:14;;;;;;;8.80;4.18;;;3.80;99.90;;;;;;5134316;28;20040;-63
2024/01/29 04:36:39;;;;;;;9.40;3.85;;;3.90;99.90;;;;;;5134225;28;20111;-62
2024/01/29 04:39:05;;;;;;;9.38;4.10;;;3.80;99.90;;;;;;5134174;28;20023;-62
2024/01/29 04:41:31;;;;;;;7.03;3.38;;;3.80;99.90;;;;;;5134013;28;20039;-62
2024/01/29 04:43:56;;;;;;;7.22;3.25;;;3.90;99.90;;;;;;5134007;28;20022;-62
2024/01/29 04:46:23;;;;;;;7.88;3.55;;;3.90;99.90;;;;;;5134067;28;20019;-63
2024/01/29 04:48:49;;;;;;;8.50;3.75;;;3.90;99.90;;;;;;5133810;28;20039;-61
2024/01/29 04:51:15;;;;;;;5.88;3.58;;;3.90;99.90;;;;;;5133809;28;20042;-64
2024/01/29 04:53:41;;;;;;;6.35;3.47;;;3.90;99.90;;;;;;5133917;28;20027;-62
2024/01/29 04:56:07;;;;;;;7.82;4.38;;;3.90;99.90;;;;;;5133796;28;20035;-62
2024/01/29 04:58:33;;;;;;;8.95;3.90;;;3.90;99.90;;;;;;5133720;28;20031;-62
2024/01/29 05:00:59;;;;;;;12.02;3.60;;;3.80;99.90;;;;;;5133860;28;20033;-62
2024/01/29 05:03:26;;;;;;;7.50;3.63;;;3.80;99.90;;;;;;5133780;28;20047;-63
2024/01/29 05:05:52;;;;;;;8.07;3.25;;;3.80;99.90;;;;;;5133701;28;20022;-62
2024/01/29 05:08:18;;;;;;;9.55;4.05;;;3.80;99.90;;;;;;5133638;28;20035;-62
2024/01/29 05:10:45;;;;;;;9.63;3.75;;;3.80;99.90;;;;;;5133540;28;20478;-62
2024/01/29 05:13:11;;;;;;;7.95;3.70;;;3.80;99.90;;;;;;5133589;28;20020;-63
2024/01/29 05:15:37;;;;;;;8.68;4.10;;;3.80;99.90;;;;;;5133500;28;20043;-63
2024/01/29 05:18:02;;;;;;;7.28;4.32;;;3.80;99.90;;;;;;5133244;28;20024;-63
2024/01/29 05:20:29;;;;;;;7.60;3.60;;;3.80;99.90;;;;;;5133359;28;20027;-61
2024/01/29 05:22:55;;;;;;;7.18;3.45;;;3.80;99.90;;;;;;5133307;28;20019;-63
2024/01/29 05:25:21;;;;;;;8.13;3.90;;;3.80;99.90;;;;;;5133281;28;20039;-62
2024/01/29 05:27:46;;;;;;;7.75;4.20;;;3.90;99.90;;;;;;5133084;28;20043;-61
2024/01/29 05:30:12;;;;;;;9.07;4.10;;;3.90;99.90;;;;;;5131295;28;20238;-62
2024/01/29 05:32:38;;;;;;;8.40;4.05;;;3.90;99.90;;;;;;5132705;28;20035;-63
2024/01/29 05:35:04;;;;;;;6.65;3.67;;;3.90;99.90;;;;;;5132882;28;20044;-63
2024/01/29 05:37:32;;;;;;;8.65;3.90;;;3.90;99.90;;;;;;5132625;28;20107;-63
2024/01/29 05:39:57;;;;;;;8.75;4.53;;;3.90;99.90;;;;;;5132492;28;20024;-62
2024/01/29 05:42:23;;;;;;;8.85;3.78;;;3.90;99.90;;;;;;5132232;28;20037;-62
2024/01/29 05:44:49;;;;;;;7.03;3.90;;;3.90;99.90;;;;;;5132769;28;20035;-62
2024/01/29 05:47:16;;;;;;;8.30;3.95;;;3.80;99.90;;;;;;5132813;28;20101;-62
2024/01/29 05:49:42;;;;;;;6.82;3.65;;;3.80;99.90;;;;;;5132494;28;20020;-62
2024/01/29 05:52:07;;;;;;;9.25;3.83;;;3.80;99.90;;;;;;5132374;28;20034;-62
2024/01/29 05:54:33;;;;;;;9.32;4.20;;;3.70;99.90;;;;;;5132118;28;20027;-62
2024/01/29 05:56:59;;;;;;;6.93;4.05;;;3.70;99.90;;;;;;5132463;28;20111;-62
2024/01/29 05:59:25;;;;;;;9.43;3.90;;;3.70;99.90;;;;;;5132504;28;20023;-62
2024/01/29 06:01:51;;;;;;;7.82;3.92;;;3.70;99.90;;;;;;5132449;28;20024;-62
2024/01/29 06:04:17;;;;;;;7.45;3.70;;;3.60;99.90;;;;;;5132409;28;20023;-62
2024/01/29 06:06:43;;;;;;;9.07;4.10;;;3.60;99.90;;;;;;5132562;28;20011;-63
2024/01/29 06:09:09;;;;;;;7.28;4.15;;;3.60;99.90;;;;;;5132412;28;20019;-61
2024/01/29 06:11:35;;;;;;;10.35;4.00;;;3.60;99.90;;;;;;5132590;28;20032;-63
2024/01/29 06:14:01;;;;;;;9.15;4.45;;;3.60;99.90;;;;;;5132435;28;20023;-63
2024/01/29 06:16:28;;;;;;;7.28;3.95;;;3.70;99.90;;;;;;5132272;28;20024;-63
2024/01/29 06:18:54;;;;;;;8.82;4.32;;;3.70;99.90;;;;;;5132298;28;20046;-62
2024/01/29 06:21:21;;;;;;;7.53;4.15;;;3.70;99.90;;;;;;5132415;28;20024;-61
2024/01/29 06:23:47;;;;;;;6.00;3.80;;;3.80;99.90;;;;;;5132504;28;20029;-62
2024/01/29 06:26:13;;;;;;;7.75;4.22;;;3.80;99.90;;;;;;5132102;28;20028;-62
2024/01/29 06:28:40;;;;;;;7.85;4.15;;;3.80;99.90;;;;;;5132238;28;20035;-62
2024/01/29 06:31:06;;;;;;;6.75;4.55;;;3.80;99.90;;;;;;5131936;28;20075;-63
2024/01/29 06:33:31;;;;;;;7.97;4.22;;;3.80;99.90;;;;;;5132369;28;20049;-63
2024/01/29 06:35:59;;;;;;;7.63;3.92;;;3.80;99.90;;;;;;5132252;28;20038;-62
2024/01/29 06:38:25;;;;;;;7.43;3.88;;;3.80;99.90;;;;;;5131950;28;20020;-63
2024/01/29 06:40:51;;;;;;;7.40;4.22;;;3.90;99.90;;;;;;5130954;28;20027;-62
2024/01/29 06:43:16;;;;;;;9.90;4.40;;;3.90;99.90;;;;;;5132162;28;20024;-63
2024/01/29 06:45:42;;;;;;;8.85;4.45;;;4.00;99.90;;;;;;5132163;28;20379;-61
2024/01/29 06:48:08;;;;;;;8.38;4.07;;;4.00;99.90;;;;;;5131687;28;20031;-62
2024/01/29 06:50:34;;;;;;;8.43;4.05;;;4.00;99.90;;;;;;5132067;28;20032;-63
2024/01/29 06:52:59;;;;;;;6.35;3.63;;;4.00;99.90;;;;;;5132001;28;20098;-61
2024/01/29 06:55:25;;;;;;;8.10;4.43;;;4.00;99.90;;;;;;5132019;28;20035;-61
2024/01/29 06:57:51;;;;;;;7.90;4.55;;;4.00;99.90;;;;;;5131885;28;20080;-63
2024/01/29 07:00:17;;;;;;;8.30;4.32;;;4.00;99.90;;;;;;5131600;28;20036;-62
2024/01/29 07:02:43;;;;;;;8.25;3.95;;;4.00;99.90;;;;;;5132047;28;20020;-63
2024/01/29 07:05:08;;;;;;;7.07;3.90;;;4.00;99.90;;;;;;5131997;28;20091;-61
2024/01/29 07:07:34;;;;;;;8.75;4.50;;;4.00;99.90;;;;;;5134534;28;20023;-61
2024/01/29 07:09:59;;;;;;;8.32;3.85;;;4.00;99.90;;;;;;5135352;28;20127;-62
2024/01/29 07:12:26;;;;;;;8.10;4.18;;;4.00;99.90;;;;;;5135485;28;20150;-63
2024/01/29 07:14:53;;;;;;;7.05;4.50;;;4.10;99.90;;;;;;5135578;28;20015;-62
2024/01/29 07:17:19;;;;;;;13.57;4.90;;;4.10;99.90;;;;;;5135548;28;20069;-63
2024/01/29 07:19:48;;;;;;;9.32;5.18;;;4.20;99.90;;;;;;5135139;28;20023;-62
2024/01/29 07:22:18;;;;;;;11.63;5.53;;;4.20;99.90;;;;;;5135172;28;20044;-63
2024/01/29 07:24:45;;;;;;;10.30;4.45;;;4.20;99.90;;;;;;5135379;28;20024;-63
2024/01/29 07:27:11;;;;;;;7.13;4.30;;;4.20;99.90;;;;;;5135460;28;20025;-63
2024/01/29 07:29:36;;;;;;;9.80;4.72;;;4.20;99.90;;;;;;5134962;28;20031;-63
2024/01/29 07:32:02;;;;;;;10.13;4.68;;;4.10;99.90;;;;;;5134896;28;20421;-62
2024/01/29 07:34:28;;;;;;;7.10;4.13;;;4.10;99.90;;;;;;5135031;28;20036;-63
2024/01/29 07:36:53;;;;;;;8.27;4.43;;;4.10;99.90;;;;;;5134942;28;20107;-61
2024/01/29 07:39:19;;;;;;;11.05;4.60;;;4.00;99.90;;;;;;5135011;28;20040;-63
2024/01/29 07:41:45;;;;;;;8.93;5.07;;;4.00;99.90;;;;;;5134956;28;20053;-63
2024/01/29 07:44:10;;;;;;;11.10;4.75;;;4.00;99.90;;;;;;5117608;28;20063;-62
2024/01/29 07:46:36;;;;;;;9.88;4.57;;;4.00;99.90;;;;;;5114156;28;20072;-63
2024/01/29 07:49:03;;;;;;;9.48;4.50;;;4.10;99.90;;;;;;5112281;28;20163;-63
2024/01/29 07:51:29;;;;;;;13.40;4.93;;;4.10;99.90;;;;;;5113865;28;20047;-63
2024/01/29 07:53:55;;;;;;;9.13;4.65;;;4.10;99.90;;;;;;5113094;28;20024;-62
2024/01/29 07:56:21;;;;;;;10.15;5.18;;;4.20;99.90;;;;;;5114089;28;20028;-62
2024/01/29 07:58:47;;;;;;;8.48;4.55;;;4.20;99.90;;;;;;5112921;28;20028;-63
2024/01/29 08:01:13;;;;;;;9.13;5.63;;;4.20;99.90;;;;;;5113990;28;20024;-62
2024/01/29 08:03:38;;;;;;;10.65;4.97;;;4.20;99.90;;;;;;5114050;28;20032;-63
2024/01/29 08:06:04;;;;;;;9.95;4.55;;;4.20;99.90;;;;;;5113616;28;20028;-64
2024/01/29 08:08:30;;;;;;;8.57;4.28;;;4.20;99.90;;;;;;5113984;28;20110;-62
2024/01/29 08:10:59;;;;;;;8.30;4.40;;;4.20;99.90;;;;;;5113855;28;20455;-63
2024/01/29 08:13:25;;;;;;;8.43;3.92;;;4.20;99.90;;;;;;5113902;28;20042;-62
2024/01/29 08:15:50;;;;;;;11.40;4.60;;;4.20;99.90;;;;;;5113687;28;20510;-62
2024/01/29 08:18:19;;;;;;;7.25;4.43;;;4.30;99.90;;;;;;5112997;28;20474;-63
2024/01/29 08:20:44;;;;;;;6.63;4.00;;;4.40;99.90;;;;;;5113512;28;20495;-62
2024/01/29 08:23:11;;;;;;;7.43;4.72;;;4.40;99.90;;;;;;5113671;28;20032;-62
2024/01/29 08:25:36;;;;;;;10.13;4.20;;;4.50;99.90;;;;;;5113717;28;20071;-63
2024/01/29 08:28:02;;;;;;;8.63;4.20;;;4.50;99.90;;;;;;5113342;28;20036;-63
2024/01/29 08:30:27;;;;;;;12.80;4.63;;;4.50;99.90;;;;;;5113169;28;20051;-62
2024/01/29 08:32:53;;;;;;;9.32;5.38;;;4.60;99.90;;;;;;5113566;28;20028;-62
2024/01/29 08:35:19;;;;;;;10.45;5.32;;;4.80;99.90;;;;;;5113373;28;20098;-62
2024/01/29 08:37:44;;;;;;;7.72;4.35;;;4.90;99.90;;;;;;5113461;28;20012;-63
2024/01/29 08:40:10;;;;;;;10.02;4.78;;;5.10;99.90;;;;;;5113124;28;20033;-63
2024/01/29 08:42:36;;;;;;;10.25;4.78;;;5.30;99.90;;;;;;5113334;28;20036;-64
2024/01/29 08:45:03;;;;;;;10.50;4.88;;;5.40;99.90;;;;;;5113243;28;20059;-63
2024/01/29 08:47:28;;;;;;;9.27;4.53;;;5.50;99.90;;;;;;5113233;28;20055;-63
2024/01/29 08:49:54;;;;;;;8.68;4.32;;;5.60;99.90;;;;;;5112652;28;20032;-63
2024/01/29 08:52:19;;;;;;;8.98;4.65;;;5.80;99.90;;;;;;5113122;28;20024;-63
2024/01/29 08:54:45;;;;;;;12.05;5.18;;;5.90;99.90;;;;;;5113192;28;20026;-63
2024/01/29 08:57:11;;;;;;;9.07;5.50;;;6.10;99.90;;;;;;5113114;28;20036;-63
2024/01/29 08:59:38;;;;;;;11.45;4.97;;;6.20;99.90;;;;;;5112800;28;20035;-62
2024/01/29 09:02:04;;;;;;;8.20;4.47;;;6.30;99.90;;;;;;5112805;28;20021;-64
2024/01/29 09:04:29;;;;;;;8.45;4.60;;;6.40;99.90;;;;;;5112849;28;20093;-63
2024/01/29 09:06:55;;;;;;;9.82;5.57;;;6.50;99.90;;;;;;5112935;28;20036;-62
2024/01/29 09:09:21;;;;;;;8.73;4.70;;;6.50;99.90;;;;;;5112769;28;20074;-63
2024/01/29 09:11:46;;;;;;;8.13;5.28;;;6.60;99.90;;;;;;5112821;28;20047;-63
2024/01/29 09:14:12;;;;;;;11.88;5.25;;;6.60;99.90;;;;;;5112572;28;20028;-62
2024/01/29 09:16:39;;;;;;;9.10;5.25;;;6.70;99.90;;;;;;5112716;28;20034;-63
2024/01/29 09:19:04;;;;;;;10.00;5.20;;;6.80;99.90;;;;;;5112409;28;20020;-63
2024/01/29 09:21:34;;;;;;;8.88;5.20;;;6.80;99.90;;;;;;5112601;28;20028;-63
2024/01/29 09:24:00;;;;;;;11.13;5.88;;;6.90;99.90;;;;;;5112479;28;20412;-64
2024/01/29 09:26:26;;;;;;;10.40;6.10;;;7.00;99.90;;;;;;5123830;28;20028;-67
2024/01/29 09:28:51;;;;;;;8.77;5.32;;;7.10;99.90;;;;;;5132256;28;20084;-68
2024/01/29 09:31:17;;;;;;;10.45;5.80;;;7.10;99.90;;;;;;5132452;28;20050;-67
2024/01/29 09:33:44;;;;;;;11.27;5.60;;;7.10;99.90;;;;;;5132849;28;20036;-68
2024/01/29 09:36:10;;;;;;;10.15;6.10;;;7.20;99.90;;;;;;5132567;28;20016;-68
2024/01/29 09:38:35;;;;;;;10.25;5.97;;;7.30;99.90;;;;;;5132851;28;20043;-68
2024/01/29 09:41:03;;;;;;;9.57;5.63;;;7.30;99.90;;;;;;5132904;28;20024;-67
2024/01/29 09:43:29;;;;;;;12.02;5.03;;;7.40;99.90;;;;;;5132683;28;20027;-67
2024/01/29 09:45:56;;;;;;;11.32;5.70;;;7.40;99.90;;;;;;5132720;28;20027;-67
2024/01/29 09:48:22;;;;;;;10.70;5.88;;;7.40;99.90;;;;;;5129475;28;20065;-66
2024/01/29 09:50:49;;;;;;;11.90;6.00;;;7.50;99.90;;;;;;5131039;28;20031;-68
2024/01/29 09:53:20;;;;;;;11.10;5.50;;;7.50;99.90;;;;;;5131772;28;20026;-68
2024/01/29 09:55:46;;;;;;;9.43;5.35;;;7.60;99.90;;;;;;5132358;28;20035;-68
2024/01/29 09:58:12;;;;;;;10.73;5.72;;;7.60;99.90;;;;;;5131820;28;20031;-68
2024/01/29 10:00:37;;;;;;;9.75;5.35;;;7.70;99.90;;;;;;5131682;28;20036;-68
2024/01/29 10:03:07;;;;;;;9.77;5.32;;;7.70;99.90;;;;;;5129539;28;20028;-68
2024/01/29 10:05:33;;;;;;;11.77;6.25;;;7.80;99.90;;;;;;5125208;28;20020;-67
2024/01/29 10:07:59;;;;;;;7.85;5.18;;;7.80;99.90;;;;;;5124549;28;20030;-66
2024/01/29 10:10:26;;;;;;;7.65;5.22;;;7.90;99.90;;;;;;5124920;28;20035;-68
2024/01/29 10:13:05;;;;;;;10.98;5.78;;;8.00;99.90;;;;;;5123022;28;20034;-67
2024/01/29 10:15:31;;;;;;;8.95;5.57;;;8.10;99.90;;;;;;5124627;28;20101;-67
2024/01/29 10:17:57;;;;;;;10.35;5.47;;;8.20;99.90;;;;;;5124506;28;20024;-65
2024/01/29 10:20:23;;;;;;;10.27;5.50;;;8.30;99.90;;;;;;5122919;28;20097;-65
2024/01/29 10:23:00;;;;;;;10.88;5.70;;;8.30;99.90;;;;;;5122554;28;20053;-65
2024/01/29 10:25:28;;;;;;;10.68;6.13;;;8.40;99.90;;;;;;5138186;28;20023;-66
2024/01/29 10:28:03;;;;;;;9.95;5.70;;;8.50;99.90;;;;;;5131541;28;20050;-65
2024/01/29 10:30:29;;;;;;;11.23;6.47;;;8.60;99.90;;;;;;5131944;28;20052;-65
2024/01/29 10:32:55;;;;;;;12.75;6.28;;;8.60;99.90;;;;;;5132323;28;20091;-64
2024/01/29 10:35:20;;;;;;;12.88;6.07;;;8.70;99.90;;;;;;5132431;28;20028;-65
2024/01/29 10:37:47;;;;;;;9.80;5.90;;;8.70;99.90;;;;;;5132398;28;20158;-65
2024/01/29 10:40:15;;;;;;;11.48;5.60;;;8.80;99.90;;;;;;5133410;28;20030;-64
2024/01/29 10:42:43;;;;;;;11.23;6.30;;;8.90;99.90;;;;;;5136401;28;20083;-64
2024/01/29 10:45:10;;;;;;;11.85;6.55;;;8.90;99.90;;;;;;5136206;28;20015;-64
2024/01/29 10:47:45;;;;;;;11.40;6.57;;;9.00;99.90;;;;;;5136263;28;20077;-64
2024/01/29 10:50:16;;;;;;;10.40;6.68;;;9.10;99.90;;;;;;5135713;28;20015;-65
2024/01/29 10:52:44;;;;;;;13.80;6.55;;;9.10;99.90;;;;;;5136099;28;20037;-66
2024/01/29 10:55:10;;;;;;;14.57;7.30;;;9.20;99.90;;;;;;5136126;28;20062;-65
2024/01/29 10:57:37;;;;;;;11.18;6.28;;;9.30;99.90;;;;;;5135944;28;20012;-65
2024/01/29 11:00:03;;;;;;;12.95;6.47;;;9.30;99.90;;;;;;5135769;28;20071;-65
2024/01/29 11:02:29;;;;;;;10.82;6.63;;;9.40;99.90;;;;;;5136083;28;20016;-66
2024/01/29 11:04:55;;;;;;;10.80;6.25;;;9.50;99.90;;;;;;5135897;28;20030;-65
2024/01/29 11:07:25;;;;;;;11.75;6.10;;;9.60;99.90;;;;;;5134899;28;20044;-66
2024/01/29 11:09:59;;;;;;;12.20;6.50;;;9.60;99.90;;;;;;5135664;28;20043;-65
2024/01/29 11:12:26;;;;;;;9.65;6.00;;;9.70;99.90;;;;;;5135629;28;20047;-65
2024/01/29 11:15:04;;;;;;;11.82;6.05;;;9.80;99.90;;;;;;5135694;28;20389;-66
2024/01/29 11:17:30;;;;;;;9.52;5.60;;;9.90;99.90;;;;;;5135703;28;20027;-66
2024/01/29 11:20:04;;;;;;;9.68;5.60;;;9.90;99.90;;;;;;5135195;28;20098;-65
2024/01/29 11:22:40;;;;;;;11.23;5.95;;;10.00;99.90;;;;;;5135538;28;20396;-65
2024/01/29 11:25:16;;;;;;;10.30;6.25;;;10.00;99.90;;;;;;5135487;28;20469;-65
2024/01/29 11:27:43;;;;;;;13.43;6.45;;;10.00;99.90;;;;;;5135186;28;20043;-65
2024/01/29 11:30:22;;;;;;;12.10;6.13;;;10.00;99.90;;;;;;5133281;28;20024;-66
2024/01/29 11:32:50;;;;;;;11.65;5.65;;;10.10;99.90;;;;;;5135060;28;20053;-66
2024/01/29 11:35:22;;;;;;;11.02;6.38;;;10.10;99.90;;;;;;5135487;28;20016;-65
2024/01/29 11:37:51;;;;;;;12.52;6.20;;;10.20;99.90;;;;;;5133223;28;20020;-65
2024/01/29 11:40:40;;;;;;;11.45;5.80;;;10.20;99.90;;;;;;5135444;28;20038;-66
2024/01/29 11:43:17;;;;;;;12.65;5.95;;;10.30;99.90;;;;;;5135309;28;20016;-66
2024/01/29 11:45:47;;;;;;;11.00;6.40;;;10.30;99.90;;;;;;5135303;28;20034;-67
2024/01/29 11:48:15;;;;;;;10.20;5.90;;;10.40;99.90;;;;;;5135009;28;20028;-67
2024/01/29 11:50:45;;;;;;;10.82;6.00;;;10.40;99.90;;;;;;5135090;28;20024;-67
2024/01/29 11:53:18;;;;;;;11.68;6.80;;;10.50;99.90;;;;;;5133292;28;20099;-66
2024/01/29 11:55:49;;;;;;;13.20;6.72;;;10.60;99.90;;;;;;5135170;28;20023;-66
2024/01/29 11:58:17;;;;;;;14.02;6.72;;;10.60;99.90;;;;;;5134977;28;20019;-66
2024/01/29 12:00:44;;;;;;;13.73;6.03;;;10.60;99.90;;;;;;5135166;28;20053;-66
2024/01/29 12:03:11;;;;;;;13.15;6.78;;;10.70;99.90;;;;;;5134943;28;20034;-66
2024/01/29 12:05:37;;;;;;;10.05;6.15;;;10.70;99.90;;;;;;5134836;28;20035;-67
2024/01/29 12:08:10;;;;;;;10.60;6.18;;;10.80;99.90;;;;;;5134385;28;20024;-66
2024/01/29 12:10:36;;;;;;;12.95;6.93;;;10.90;99.90;;;;;;5134705;28;20053;-67
2024/01/29 12:13:02;;;;;;;11.10;6.75;;;10.90;99.90;;;;;;5134817;28;20024;-66
2024/01/29 12:15:28;;;;;;;12.38;6.50;;;11.00;99.90;;;;;;5134879;28;20069;-66
2024/01/29 12:17:54;;;;;;;11.18;6.57;;;11.00;99.90;;;;;;5134754;28;20020;-66
2024/01/29 12:20:19;;;;;;;14.75;6.45;;;11.10;99.90;;;;;;5134173;28;20042;-66
2024/01/29 12:22:45;;;;;;;11.18;6.88;;;11.20;99.90;;;;;;5133385;28;20031;-66
2024/01/29 12:25:12;;;;;;;12.30;7.10;;;11.20;99.90;;;;;;5134420;28;20035;-66
2024/01/29 12:27:39;;;;;;;11.73;6.55;;;11.20;99.90;;;;;;5134483;28;20031;-66
2024/01/29 12:30:13;;;;;;;12.38;6.90;;;11.30;99.90;;;;;;5134331;28;20034;-65
2024/01/29 12:32:42;;;;;;;12.43;6.90;;;11.30;99.90;;;;;;5134062;28;20039;-66
2024/01/29 12:35:31;;;;;;;14.70;6.38;;;11.30;99.90;;;;;;5134402;28;20055;-66
2024/01/29 12:38:04;;;;;;;12.48;6.68;;;11.40;99.90;;;;;;5134269;28;20035;-65
2024/01/29 12:40:30;;;;;;;12.90;6.25;;;11.40;99.90;;;;;;5134176;28;20024;-65
2024/01/29 12:43:03;;;;;;;11.63;7.15;;;11.40;99.90;;;;;;5134123;28;20027;-66
2024/01/29 12:45:29;;;;;;;11.30;6.18;;;11.40;99.90;;;;;;5134189;28;20088;-66
2024/01/29 12:48:17;;;;;;;9.73;6.32;;;11.40;99.90;;;;;;5134140;28;20032;-66
2024/01/29 12:50:42;;;;;;;10.80;6.53;;;11.50;99.90;;;;;;5133981;28;20043;-65